createdAt,value
2022-11-27T00:01:23.722Z,102088.81
2022-11-27T00:03:50.893Z,102083.31
2022-11-27T00:06:24.580Z,102075.81
2022-11-27T00:08:51.378Z,102084.03
2022-11-27T00:11:20.613Z,102079.44
2022-11-27T00:13:47.297Z,102082.16
2022-11-27T00:16:15.111Z,102081.31
2022-11-27T00:18:41.826Z,102075.81
2022-11-27T00:21:17.623Z,102079.56
2022-11-27T00:23:44.116Z,102070.34
2022-11-27T00:26:11.207Z,102061.94
2022-11-27T00:28:38.205Z,102068.28
2022-11-27T00:31:13.299Z,102073.25
2022-11-27T00:33:39.754Z,102070.69
2022-11-27T00:36:07.625Z,102066.22
2022-11-27T00:38:38.714Z,102067.22
2022-11-27T00:41:10.153Z,102074.75
2022-11-27T00:43:43.989Z,102080.91
2022-11-27T00:46:15.219Z,102074.03
2022-11-27T00:48:42.390Z,102076.78
2022-11-27T00:51:13.646Z,102076.97
2022-11-27T00:53:40.161Z,102082.78
2022-11-27T00:56:07.122Z,102077.44
2022-11-27T00:58:34.230Z,102076.75
2022-11-27T01:01:05.858Z,102077.44
2022-11-27T01:03:33.171Z,102074.31
2022-11-27T01:06:07.274Z,102074.16
2022-11-27T01:08:34.384Z,102095.88
2022-11-27T01:11:01.217Z,102090.72
2022-11-27T01:13:31.302Z,102089.00
2022-11-27T01:16:05.630Z,102082.81
2022-11-27T01:18:32.864Z,102086.88
2022-11-27T01:20:59.605Z,102086.88
2022-11-27T01:23:26.345Z,102090.66
2022-11-27T01:25:56.190Z,102074.56
2022-11-27T01:28:24.286Z,102082.38
2022-11-27T01:30:51.603Z,102067.13
2022-11-27T01:33:19.131Z,102071.91
2022-11-27T01:36:00.303Z,102062.28
2022-11-27T01:38:27.768Z,102061.75
2022-11-27T01:41:12.400Z,102054.88
2022-11-27T01:43:46.844Z,102049.19
2022-11-27T01:46:36.792Z,102044.34
2022-11-27T01:49:09.305Z,102046.16
2022-11-27T01:51:44.464Z,102052.81
2022-11-27T01:54:11.953Z,102053.41
2022-11-27T01:56:41.605Z,102053.19
2022-11-27T01:59:08.156Z,102060.16
2022-11-27T02:01:34.744Z,102057.91
2022-11-27T02:04:02.296Z,102050.69
2022-11-27T02:06:29.305Z,102042.97
2022-11-27T02:08:56.559Z,102038.66
2022-11-27T02:11:34.832Z,102033.84
2022-11-27T02:14:10.884Z,102031.56
2022-11-27T02:16:48.689Z,102034.44
2022-11-27T02:19:36.188Z,102034.75
2022-11-27T02:22:15.289Z,102037.81
2022-11-27T02:24:55.729Z,102040.00
2022-11-27T02:27:58.716Z,102031.94
2022-11-27T02:30:25.483Z,102032.22
2022-11-27T02:33:00.556Z,102025.03
2022-11-27T02:35:32.497Z,102022.47
2022-11-27T02:38:13.755Z,102024.66
2022-11-27T02:40:49.646Z,102027.38
2022-11-27T02:43:21.645Z,102016.91
2022-11-27T02:45:51.188Z,102006.13
2022-11-27T02:48:23.174Z,102014.31
2022-11-27T02:50:51.435Z,102001.84
2022-11-27T02:53:23.974Z,102006.28
2022-11-27T02:55:52.319Z,102005.44
2022-11-27T02:58:23.476Z,102006.13
2022-11-27T03:00:50.751Z,101999.97
2022-11-27T03:03:21.523Z,102001.84
2022-11-27T03:05:51.312Z,102008.63
2022-11-27T03:08:37.533Z,101995.59
2022-11-27T03:11:06.739Z,101996.03
2022-11-27T03:13:38.450Z,101987.84
2022-11-27T03:16:23.443Z,101973.50
2022-11-27T03:18:56.549Z,101971.34
2022-11-27T03:21:35.323Z,101973.41
2022-11-27T03:24:01.852Z,101968.41
2022-11-27T03:26:28.781Z,101968.53
2022-11-27T03:28:58.139Z,101965.97
2022-11-27T03:31:25.470Z,101964.41
2022-11-27T03:33:54.009Z,101971.75
2022-11-27T03:36:21.765Z,101966.72
2022-11-27T03:38:50.704Z,101970.63
2022-11-27T03:41:26.249Z,101966.50
2022-11-27T03:44:06.642Z,101966.63
2022-11-27T03:46:49.171Z,101973.09
2022-11-27T03:49:32.483Z,101970.69
2022-11-27T03:52:06.176Z,101975.44
2022-11-27T03:54:48.361Z,101961.06
2022-11-27T03:57:33.615Z,101967.38
2022-11-27T04:00:04.708Z,101963.66
2022-11-27T04:02:46.807Z,101965.66
2022-11-27T04:05:14.171Z,101968.97
2022-11-27T04:07:41.485Z,101979.31
2022-11-27T04:10:09.076Z,101981.03
2022-11-27T04:12:35.538Z,101981.91
2022-11-27T04:15:01.883Z,101986.19
2022-11-27T04:17:28.300Z,101978.88
2022-11-27T04:19:54.703Z,101965.94
2022-11-27T04:22:21.252Z,101977.88
2022-11-27T04:24:47.687Z,101967.63
2022-11-27T04:27:14.110Z,101969.38
2022-11-27T04:29:40.572Z,101951.97
2022-11-27T04:32:07.015Z,101947.22
2022-11-27T04:34:33.595Z,101934.28
2022-11-27T04:37:00.402Z,101929.53
2022-11-27T04:39:27.159Z,101929.94
2022-11-27T04:41:53.564Z,101925.16
2022-11-27T04:44:22.577Z,101927.56
2022-11-27T04:46:50.182Z,101926.13
2022-11-27T04:49:16.723Z,101927.34
2022-11-27T04:51:43.326Z,101914.41
2022-11-27T04:54:09.752Z,101905.22
2022-11-27T04:56:36.126Z,101908.50
2022-11-27T04:59:02.793Z,101903.56
2022-11-27T05:01:29.302Z,101897.56
2022-11-27T05:03:55.783Z,101891.38
2022-11-27T05:06:22.735Z,101889.69
2022-11-27T05:08:49.563Z,101894.13
2022-11-27T05:11:17.332Z,101907.09
2022-11-27T05:13:44.125Z,101907.41
2022-11-27T05:16:11.014Z,101895.38
2022-11-27T05:18:37.518Z,101906.13
2022-11-27T05:21:06.754Z,101895.94
2022-11-27T05:23:34.824Z,101880.56
2022-11-27T05:26:01.577Z,101869.16
2022-11-27T05:28:27.996Z,101869.31
2022-11-27T05:30:54.740Z,101862.13
2022-11-27T05:33:21.274Z,101860.56
2022-11-27T05:35:47.747Z,101859.72
2022-11-27T05:38:14.175Z,101843.66
2022-11-27T05:40:40.580Z,101835.44
2022-11-27T05:43:07.132Z,101828.13
2022-11-27T05:45:33.516Z,101825.41
2022-11-27T05:47:59.949Z,101823.22
2022-11-27T05:50:26.419Z,101827.94
2022-11-27T05:52:52.849Z,101824.06
2022-11-27T05:55:19.280Z,101825.63
2022-11-27T05:57:45.639Z,101832.94
2022-11-27T06:00:12.798Z,101842.69
2022-11-27T06:02:39.313Z,101823.56
2022-11-27T06:05:06.440Z,101833.50
2022-11-27T06:07:32.934Z,101839.97
2022-11-27T06:09:59.428Z,101848.16
2022-11-27T06:12:25.819Z,101830.63
2022-11-27T06:14:52.218Z,101824.16
2022-11-27T06:17:18.670Z,101815.44
2022-11-27T06:19:45.071Z,101811.41
2022-11-27T06:22:11.457Z,101805.06
2022-11-27T06:24:37.943Z,101814.31
2022-11-27T06:27:04.424Z,101811.06
2022-11-27T06:29:30.857Z,101807.00
2022-11-27T06:31:57.384Z,101815.75
2022-11-27T06:34:23.884Z,101801.22
2022-11-27T06:36:51.131Z,101808.25
2022-11-27T06:39:17.684Z,101803.34
2022-11-27T06:41:44.195Z,101804.72
2022-11-27T06:44:11.039Z,101802.00
2022-11-27T06:46:37.484Z,101795.06
2022-11-27T06:49:13.021Z,101808.56
2022-11-27T06:51:39.576Z,101810.28
2022-11-27T06:54:06.014Z,101801.38
2022-11-27T06:56:32.481Z,101800.19
2022-11-27T06:59:01.117Z,101793.56
2022-11-27T07:01:29.242Z,101796.13
2022-11-27T07:03:56.630Z,101793.72
2022-11-27T07:06:25.535Z,101795.13
2022-11-27T07:08:53.018Z,101795.78
2022-11-27T07:11:22.394Z,101791.19
2022-11-27T07:13:50.042Z,101790.19
2022-11-27T07:16:17.950Z,101770.03
2022-11-27T07:18:47.539Z,101760.81
2022-11-27T07:21:14.298Z,101761.34
2022-11-27T07:23:40.901Z,101754.69
2022-11-27T07:26:11.922Z,101752.34
2022-11-27T07:28:38.897Z,101746.53
2022-11-27T07:31:05.791Z,101742.75
2022-11-27T07:33:32.475Z,101748.75
2022-11-27T07:36:08.014Z,101751.34
2022-11-27T07:38:34.892Z,101737.19
2022-11-27T07:41:05.634Z,101740.13
2022-11-27T07:43:33.799Z,101735.66
2022-11-27T07:46:04.904Z,101739.09
2022-11-27T07:48:31.815Z,101730.56
2022-11-27T07:50:58.541Z,101735.84
2022-11-27T07:53:24.906Z,101747.25
2022-11-27T07:55:51.471Z,101750.69
2022-11-27T07:58:17.911Z,101743.53
2022-11-27T08:00:44.315Z,101734.78
2022-11-27T08:03:10.831Z,101724.22
2022-11-27T08:05:37.723Z,101706.97
2022-11-27T08:08:05.027Z,101707.66
2022-11-27T08:10:35.268Z,101705.28
2022-11-27T08:13:01.662Z,101700.13
2022-11-27T08:15:28.209Z,101701.53
2022-11-27T08:17:54.739Z,101695.00
2022-11-27T08:20:21.195Z,101695.53
2022-11-27T08:22:47.979Z,101678.78
2022-11-27T08:25:14.959Z,101681.38
2022-11-27T08:27:41.474Z,101681.03
2022-11-27T08:30:08.408Z,101687.88
2022-11-27T08:32:37.967Z,101681.19
2022-11-27T08:35:04.654Z,101685.13
2022-11-27T08:37:31.229Z,101684.78
2022-11-27T08:39:57.642Z,101680.84
2022-11-27T08:42:24.078Z,101687.19
2022-11-27T08:44:50.469Z,101681.38
2022-11-27T08:47:16.949Z,101672.84
2022-11-27T08:49:46.192Z,101663.97
2022-11-27T08:52:13.214Z,101670.81
2022-11-27T08:54:40.029Z,101673.56
2022-11-27T08:57:06.597Z,101657.13
2022-11-27T08:59:33.068Z,101648.91
2022-11-27T09:01:59.441Z,101658.69
2022-11-27T09:04:25.884Z,101652.34
2022-11-27T09:06:57.931Z,101651.66
2022-11-27T09:09:24.919Z,101652.50
2022-11-27T09:11:51.318Z,101654.06
2022-11-27T09:14:17.764Z,101651.66
2022-11-27T09:16:44.193Z,101649.63
2022-11-27T09:19:10.624Z,101654.75
2022-11-27T09:21:38.757Z,101652.50
2022-11-27T09:24:05.677Z,101643.78
2022-11-27T09:26:32.136Z,101645.81
2022-11-27T09:28:59.499Z,101641.72
2022-11-27T09:31:26.487Z,101635.22
2022-11-27T09:33:53.753Z,101624.63
2022-11-27T09:36:23.472Z,101620.16
2022-11-27T09:38:50.171Z,101626.31
2022-11-27T09:41:19.624Z,101644.09
2022-11-27T09:43:59.345Z,101650.94
2022-11-27T09:46:32.533Z,101649.22
2022-11-27T09:49:03.381Z,101631.28
2022-11-27T09:51:38.942Z,101627.16
2022-11-27T09:54:24.313Z,101606.63
2022-11-27T09:56:53.465Z,101614.31
2022-11-27T09:59:22.623Z,101603.00
2022-11-27T10:01:51.103Z,101603.81
2022-11-27T10:04:20.288Z,101599.53
2022-11-27T10:07:11.740Z,101591.28
2022-11-27T10:09:55.197Z,101584.41
2022-11-27T10:12:49.034Z,101582.59
2022-11-27T10:15:50.774Z,101574.94
2022-11-27T10:18:32.465Z,101585.81
2022-11-27T10:21:08.969Z,101579.16
2022-11-27T10:23:59.968Z,101573.56
2022-11-27T10:26:34.638Z,101581.72
2022-11-27T10:29:12.539Z,101560.66
2022-11-27T10:31:53.746Z,101567.22
2022-11-27T10:34:43.270Z,101564.19
2022-11-27T10:37:15.936Z,101545.06
2022-11-27T10:40:02.558Z,101537.06
2022-11-27T10:42:44.296Z,101546.94
2022-11-27T10:45:31.971Z,101536.34
2022-11-27T10:47:59.404Z,101534.69
2022-11-27T10:50:25.969Z,101530.97
2022-11-27T10:53:26.503Z,101521.38
2022-11-27T10:55:53.490Z,101523.50
2022-11-27T10:58:32.017Z,101524.00
2022-11-27T11:01:07.067Z,101511.22
2022-11-27T11:03:34.391Z,101521.53
2022-11-27T11:06:23.289Z,101518.41
2022-11-27T11:09:16.787Z,101521.84
2022-11-27T11:11:43.702Z,101518.16
2022-11-27T11:14:22.877Z,101519.59
2022-11-27T11:16:50.340Z,101515.81
2022-11-27T11:19:36.869Z,101521.94
2022-11-27T11:22:15.477Z,101510.19
2022-11-27T11:24:48.802Z,101495.41
2022-11-27T11:27:20.071Z,101478.84
2022-11-27T11:29:50.817Z,101474.75
2022-11-27T11:32:20.267Z,101459.78
2022-11-27T11:35:00.580Z,101465.25
2022-11-27T11:37:33.730Z,101470.00
2022-11-27T11:40:20.384Z,101473.22
2022-11-27T11:42:58.867Z,101464.91
2022-11-27T11:45:32.262Z,101468.44
2022-11-27T11:48:02.075Z,101456.69
2022-11-27T11:50:54.424Z,101445.78
2022-11-27T11:53:40.415Z,101445.31
2022-11-27T11:56:23.485Z,101427.72
2022-11-27T11:59:03.598Z,101435.75
2022-11-27T12:01:45.132Z,101430.53
2022-11-27T12:04:41.621Z,101422.84
2022-11-27T12:07:52.096Z,101427.44
2022-11-27T12:10:49.008Z,101425.94
2022-11-27T12:13:39.402Z,101413.88
2022-11-27T12:16:17.893Z,101410.81
2022-11-27T12:19:07.205Z,101402.56
2022-11-27T12:22:02.252Z,101397.06
2022-11-27T12:24:45.174Z,101383.38
2022-11-27T12:27:31.221Z,101384.03
2022-11-27T12:30:02.999Z,101374.75
2022-11-27T12:33:05.269Z,101373.94
2022-11-27T12:35:50.042Z,101372.31
2022-11-27T12:38:30.075Z,101365.56
2022-11-27T12:41:27.114Z,101335.72
2022-11-27T12:44:00.011Z,101335.09
2022-11-27T12:46:50.919Z,101325.56
2022-11-27T12:49:32.309Z,101316.47
2022-11-27T12:52:11.754Z,101309.25
2022-11-27T12:54:47.506Z,101302.41
2022-11-27T12:57:20.774Z,101308.75
2022-11-27T13:00:04.324Z,101299.88
2022-11-27T13:02:52.991Z,101290.94
2022-11-27T13:05:23.974Z,101265.56
2022-11-27T13:08:02.853Z,101258.75
2022-11-27T13:10:43.145Z,101252.81
2022-11-27T13:13:28.293Z,101243.25
2022-11-27T13:15:54.658Z,101234.16
2022-11-27T13:18:30.152Z,101233.97
2022-11-27T13:21:01.084Z,101219.56
2022-11-27T13:23:32.127Z,101214.50
2022-11-27T13:26:01.653Z,101217.25
2022-11-27T13:28:45.296Z,101203.31
2022-11-27T13:31:37.389Z,101187.25
2022-11-27T13:34:10.132Z,101184.50
2022-11-27T13:36:42.733Z,101187.28
2022-11-27T13:39:28.556Z,101165.69
2022-11-27T13:42:08.946Z,101166.75
2022-11-27T13:44:41.563Z,101176.88
2022-11-27T13:47:12.870Z,101193.97
2022-11-27T13:49:39.795Z,101197.38
2022-11-27T13:52:18.711Z,101193.97
2022-11-27T13:54:52.663Z,101185.09
2022-11-27T13:57:20.828Z,101166.03
2022-11-27T14:00:02.199Z,101172.53
2022-11-27T14:02:51.917Z,101173.38
2022-11-27T14:05:35.991Z,101176.97
2022-11-27T14:08:02.632Z,101173.81
2022-11-27T14:10:33.034Z,101176.56
2022-11-27T14:13:04.656Z,101176.38
2022-11-27T14:15:35.244Z,101184.41
2022-11-27T14:18:14.639Z,101187.56
2022-11-27T14:20:53.543Z,101180.19
2022-11-27T14:23:34.434Z,101176.56
2022-11-27T14:26:21.765Z,101182.47
2022-11-27T14:29:00.349Z,101198.97
2022-11-27T14:31:35.901Z,101202.50
2022-11-27T14:34:20.803Z,101206.03
2022-11-27T14:36:52.732Z,101214.69
2022-11-27T14:39:37.596Z,101206.84
2022-11-27T14:42:06.404Z,101205.94
2022-11-27T14:44:33.126Z,101200.84
2022-11-27T14:47:05.259Z,101200.16
2022-11-27T14:49:33.657Z,101186.81
2022-11-27T14:52:04.516Z,101183.44
2022-11-27T14:54:41.187Z,101189.69
2022-11-27T14:57:16.407Z,101184.44
2022-11-27T14:59:43.031Z,101192.00
2022-11-27T15:02:12.769Z,101209.31
2022-11-27T15:04:41.192Z,101212.75
2022-11-27T15:07:29.318Z,101210.00
2022-11-27T15:09:58.282Z,101201.75
2022-11-27T15:12:37.181Z,101209.13
2022-11-27T15:15:08.913Z,101198.72
2022-11-27T15:17:38.289Z,101205.25
2022-11-27T15:20:15.498Z,101212.59
2022-11-27T15:22:54.010Z,101198.22
2022-11-27T15:25:41.727Z,101200.09
2022-11-27T15:28:23.608Z,101188.25
2022-11-27T15:30:50.460Z,101192.03
2022-11-27T15:33:26.715Z,101179.75
2022-11-27T15:35:54.502Z,101180.34
2022-11-27T15:38:21.248Z,101186.88
2022-11-27T15:41:00.860Z,101182.63
2022-11-27T15:43:27.341Z,101190.22
2022-11-27T15:45:53.799Z,101188.25
2022-11-27T15:48:21.455Z,101176.59
2022-11-27T15:50:51.682Z,101189.00
2022-11-27T15:53:18.695Z,101182.88
2022-11-27T15:55:45.142Z,101181.56
2022-11-27T15:58:11.617Z,101181.56
2022-11-27T16:00:38.210Z,101184.94
2022-11-27T16:03:04.711Z,101180.69
2022-11-27T16:05:31.112Z,101180.69
2022-11-27T16:07:57.578Z,101186.19
2022-11-27T16:10:24.299Z,101178.13
2022-11-27T16:12:54.778Z,101168.88
2022-11-27T16:15:23.226Z,101165.47
2022-11-27T16:17:50.506Z,101149.41
2022-11-27T16:20:17.114Z,101137.69
2022-11-27T16:22:43.474Z,101136.66
2022-11-27T16:25:09.917Z,101127.97
2022-11-27T16:27:36.414Z,101123.22
2022-11-27T16:30:03.313Z,101120.88
2022-11-27T16:32:29.828Z,101115.28
2022-11-27T16:34:56.213Z,101108.50
2022-11-27T16:37:23.281Z,101102.53
2022-11-27T16:39:49.686Z,101095.34
2022-11-27T16:42:16.066Z,101087.13
2022-11-27T16:44:44.261Z,101076.94
2022-11-27T16:47:11.108Z,101057.28
2022-11-27T16:49:37.493Z,101039.13
2022-11-27T16:52:04.085Z,101030.72
2022-11-27T16:54:30.501Z,101047.16
2022-11-27T16:56:56.913Z,101058.13
2022-11-27T16:59:23.342Z,101052.44
2022-11-27T17:01:49.789Z,101039.41
2022-11-27T17:04:19.081Z,101053.13
2022-11-27T17:06:47.058Z,101055.19
2022-11-27T17:09:14.394Z,101057.75
2022-11-27T17:11:44.462Z,101059.41
2022-11-27T17:14:11.518Z,101057.75
2022-11-27T17:16:42.581Z,101052.25
2022-11-27T17:19:13.576Z,101045.47
2022-11-27T17:21:40.549Z,101027.31
2022-11-27T17:24:14.991Z,101017.56
2022-11-27T17:26:43.101Z,101019.19
2022-11-27T17:29:14.907Z,101014.78
2022-11-27T17:31:41.613Z,101017.88
2022-11-27T17:34:11.746Z,101007.75
2022-11-27T17:36:38.831Z,100995.94
2022-11-27T17:39:07.083Z,100989.63
2022-11-27T17:41:34.645Z,100987.94
2022-11-27T17:44:05.617Z,100984.97
2022-11-27T17:46:33.155Z,100976.13
2022-11-27T17:49:01.901Z,100979.03
2022-11-27T17:51:31.142Z,100975.44
2022-11-27T17:54:00.777Z,100964.47
2022-11-27T17:56:28.687Z,100965.53
2022-11-27T17:58:55.612Z,100973.56
2022-11-27T18:01:24.639Z,100969.78
2022-11-27T18:03:54.097Z,100985.84
2022-11-27T18:06:20.588Z,100982.25
2022-11-27T18:08:47.568Z,100974.47
2022-11-27T18:11:17.111Z,100969.84
2022-11-27T18:13:43.705Z,100969.84
2022-11-27T18:16:13.967Z,100961.84
2022-11-27T18:18:41.135Z,100956.53
2022-11-27T18:21:14.001Z,100951.44
2022-11-27T18:24:14.409Z,100934.72
2022-11-27T18:26:52.377Z,100933.41
2022-11-27T18:29:16.686Z,100928.53
2022-11-27T18:31:43.462Z,100916.50
2022-11-27T18:34:09.957Z,100912.28
2022-11-27T18:36:36.423Z,100931.63
2022-11-27T18:39:04.811Z,100933.34
2022-11-27T18:41:31.238Z,100932.50
2022-11-27T18:43:58.922Z,100920.69
2022-11-27T18:46:25.606Z,100917.13
2022-11-27T18:48:52.170Z,100908.50
2022-11-27T18:51:23.930Z,100908.50
2022-11-27T18:53:51.260Z,100894.81
2022-11-27T18:56:20.350Z,100889.50
2022-11-27T18:58:47.741Z,100889.97
2022-11-27T19:01:18.397Z,100886.19
2022-11-27T19:03:45.251Z,100893.38
2022-11-27T19:06:14.455Z,100888.34
2022-11-27T19:08:41.517Z,100878.25
2022-11-27T19:11:14.142Z,100880.19
2022-11-27T19:13:41.398Z,100888.41
2022-11-27T19:16:11.150Z,100881.88
2022-11-27T19:18:37.863Z,100879.59
2022-11-27T19:21:12.982Z,100873.91
2022-11-27T19:23:39.763Z,100868.03
2022-11-27T19:26:08.821Z,100879.19
2022-11-27T19:28:35.474Z,100887.03
2022-11-27T19:31:10.126Z,100887.88
2022-11-27T19:33:37.667Z,100887.69
2022-11-27T19:36:12.932Z,100890.22
2022-11-27T19:38:42.350Z,100883.69
2022-11-27T19:41:17.638Z,100883.69
2022-11-27T19:43:45.511Z,100873.78
2022-11-27T19:46:36.300Z,100867.84
2022-11-27T19:49:09.394Z,100872.28
2022-11-27T19:51:37.806Z,100868.69
2022-11-27T19:54:09.882Z,100873.13
2022-11-27T19:56:38.734Z,100872.06
2022-11-27T19:59:05.870Z,100865.53
2022-11-27T20:01:32.438Z,100843.84
2022-11-27T20:03:59.809Z,100849.94
2022-11-27T20:06:26.757Z,100841.53
2022-11-27T20:08:57.464Z,100855.03
2022-11-27T20:11:25.951Z,100854.84
2022-11-27T20:13:59.282Z,100855.47
2022-11-27T20:16:26.192Z,100855.31
2022-11-27T20:18:52.714Z,100866.06
2022-11-27T20:21:24.785Z,100842.88
2022-11-27T20:23:52.858Z,100841.63
2022-11-27T20:26:23.108Z,100842.94
2022-11-27T20:28:52.532Z,100838.09
2022-11-27T20:31:30.264Z,100837.44
2022-11-27T20:34:00.609Z,100837.44
2022-11-27T20:36:28.271Z,100825.00
2022-11-27T20:38:57.567Z,100830.25
2022-11-27T20:41:24.840Z,100825.81
2022-11-27T20:43:57.096Z,100823.75
2022-11-27T20:46:24.288Z,100826.47
2022-11-27T20:48:52.213Z,100812.78
2022-11-27T20:51:21.732Z,100821.63
2022-11-27T20:53:49.817Z,100815.78
2022-11-27T20:56:18.389Z,100808.22
2022-11-27T20:58:45.970Z,100809.69
2022-11-27T21:01:20.444Z,100804.03
2022-11-27T21:03:49.067Z,100803.63
2022-11-27T21:06:17.351Z,100802.34
2022-11-27T21:08:43.890Z,100804.91
2022-11-27T21:11:11.624Z,100811.25
2022-11-27T21:13:38.270Z,100809.97
2022-11-27T21:16:07.985Z,100810.66
2022-11-27T21:18:34.600Z,100806.19
2022-11-27T21:21:08.896Z,100810.44
2022-11-27T21:23:35.844Z,100812.31
2022-11-27T21:26:02.234Z,100810.44
2022-11-27T21:28:30.321Z,100809.56
2022-11-27T21:31:10.671Z,100811.69
2022-11-27T21:33:37.716Z,100807.06
2022-11-27T21:36:04.958Z,100808.09
2022-11-27T21:38:31.400Z,100816.31
2022-11-27T21:40:57.891Z,100797.53
2022-11-27T21:43:24.383Z,100804.91
2022-11-27T21:45:50.967Z,100792.91
2022-11-27T21:48:17.562Z,100797.31
2022-11-27T21:50:43.967Z,100792.66
2022-11-27T21:53:10.422Z,100800.91
2022-11-27T21:55:43.936Z,100792.47
2022-11-27T21:58:10.361Z,100782.56
2022-11-27T22:00:37.206Z,100782.13
2022-11-27T22:03:04.023Z,100783.00
2022-11-27T22:05:30.678Z,100788.47
2022-11-27T22:07:57.172Z,100780.91
2022-11-27T22:10:23.660Z,100777.09
2022-11-27T22:12:50.086Z,100765.69
2022-11-27T22:15:16.605Z,100760.00
2022-11-27T22:17:43.039Z,100759.34
2022-11-27T22:20:09.849Z,100754.06
2022-11-27T22:22:36.210Z,100762.31
2022-11-27T22:25:04.540Z,100749.63
2022-11-27T22:27:31.033Z,100753.41
2022-11-27T22:29:57.483Z,100749.63
2022-11-27T22:32:23.918Z,100757.22
2022-11-27T22:34:51.077Z,100758.91
2022-11-27T22:37:17.534Z,100758.28
2022-11-27T22:39:44.538Z,100750.19
2022-11-27T22:42:12.223Z,100730.59
2022-11-27T22:44:39.121Z,100729.97
2022-11-27T22:47:05.687Z,100733.75
2022-11-27T22:49:32.112Z,100743.25
2022-11-27T22:51:58.544Z,100746.16
2022-11-27T22:54:25.087Z,100731.97
2022-11-27T22:56:51.494Z,100742.09
2022-11-27T22:59:34.492Z,100738.06
2022-11-27T23:02:02.287Z,100729.22
2022-11-27T23:04:28.765Z,100733.66
2022-11-27T23:06:55.246Z,100727.50
2022-11-27T23:09:21.717Z,100712.31
2022-11-27T23:11:49.371Z,100704.28
2022-11-27T23:14:16.426Z,100703.47
2022-11-27T23:16:43.147Z,100695.41
2022-11-27T23:19:10.499Z,100698.78
2022-11-27T23:21:38.657Z,100704.28
2022-11-27T23:24:06.774Z,100689.75
2022-11-27T23:26:33.380Z,100700.09
2022-11-27T23:29:00.017Z,100701.38
2022-11-27T23:31:30.877Z,100705.81
2022-11-27T23:33:59.315Z,100703.50
2022-11-27T23:36:25.808Z,100695.91
2022-11-27T23:38:52.318Z,100692.09
2022-11-27T23:41:24.099Z,100689.38
2022-11-27T23:43:51.868Z,100692.09
2022-11-27T23:46:20.358Z,100696.94
2022-11-27T23:48:47.058Z,100696.31
2022-11-27T23:51:23.425Z,100703.03
2022-11-27T23:53:50.403Z,100695.69
2022-11-27T23:56:20.060Z,100692.53
2022-11-27T23:58:47.738Z,100695.03
